»·PEaware :: N567DD KSMX-KBFL

N567DD :: KSMX-KBFL

FLIGHT INFORMATION

Flight Status: Arrived
Operator: Privately registered:
United States
More flights under this callsign
Pilot: Chris O. (30024)
Aircraft: BEECH AIRCRAFT A90-E90 KING AIR
(BE9L)
More flights by this aircraft type
Origin: KSMX Santa Maria Pub/Capt Hancock
United States
Destination: KBFL Meadows
United States
More flights between these airports :: More routes between these airports
Route: +BUELT4 FLW
File this flight plan on PilotEdge
Remarks: RMK / SIMBRIEF
Altitude:
(Current/Filed)
8,000ft
Speed:
(Current/Filed)
295kts
Departed: 27-Jun-20 01:16 PM
Arrived: 27-Jun-20 01:53 PM
Distance/Time
Traveled:
76nm/0:36
Distance/Time
To Go:
Arrived

Flight Plot

Page will automatically refresh every two minutes.

Flight plan parsing failed; only flown route is shown


Map Options




Map Legend


Flown Route
Filed Route
Departure Airport
Arrival Airport
Navaid (VOR, NDB)
Fix

Horizontal Profiles

Position Reports

Time Latitude Longitude Heading Altitude Ground
Speed
27-Jun-20 13:02 34.890840 -120.449133 30 264ft 0kts
27-Jun-20 13:03 34.890840 -120.449133 30 264ft 0kts
27-Jun-20 13:04 34.890840 -120.449133 30 264ft 0kts
27-Jun-20 13:05 34.890840 -120.449133 30 264ft 0kts
27-Jun-20 13:06 34.890840 -120.449133 30 264ft 0kts
27-Jun-20 13:07 34.892043 -120.446362 46 264ft 0kts
27-Jun-20 13:08 34.892043 -120.446362 46 264ft 0kts
27-Jun-20 13:09 34.892043 -120.446362 46 264ft 0kts
27-Jun-20 13:10 34.900731 -120.451560 228 264ft 0kts
27-Jun-20 13:11 34.900579 -120.451493 99 264ft 0kts
27-Jun-20 13:12 34.900577 -120.451473 99 264ft 2kts
27-Jun-20 13:13 34.896315 -120.447587 135 264ft 31kts
27-Jun-20 13:14 34.893481 -120.445220 180 264ft 0kts
27-Jun-20 13:15 34.897852 -120.451811 317 264ft 110kts
27-Jun-20 13:16 34.926520 -120.486024 316 658ft 183kts
27-Jun-20 13:17 34.962950 -120.528757 318 2064ft 156kts
27-Jun-20 13:18 34.992880 -120.551902 329 4323ft 117kts
27-Jun-20 13:19 35.020514 -120.573957 324 5910ft 126kts
27-Jun-20 13:20 35.050342 -120.598102 328 7385ft 133kts
27-Jun-20 13:21 35.088307 -120.626382 328 7520ft 177kts
27-Jun-20 13:22 35.127185 -120.616118 71 7524ft 195kts
27-Jun-20 13:23 35.142901 -120.551675 72 7518ft 199kts
27-Jun-20 13:24 35.158752 -120.486549 72 7518ft 200kts
27-Jun-20 13:25 35.174666 -120.421072 72 7519ft 200kts
27-Jun-20 13:26 35.190406 -120.355869 71 7520ft 200kts
27-Jun-20 13:27 35.187123 -120.288934 103 7523ft 204kts
27-Jun-20 13:28 35.173549 -120.221085 103 7525ft 206kts
27-Jun-20 13:29 35.160115 -120.153442 103 7669ft 200kts
27-Jun-20 13:30 35.146318 -120.086869 106 7674ft 204kts
27-Jun-20 13:31 35.130363 -120.019774 105 7667ft 206kts
27-Jun-20 13:32 35.114804 -119.952329 105 7659ft 206kts
27-Jun-20 13:33 35.099534 -119.884503 105 7652ft 208kts
27-Jun-20 13:34 35.104179 -119.816839 64 7649ft 207kts
27-Jun-20 13:35 35.131692 -119.755108 57 7644ft 206kts
27-Jun-20 13:36 35.161463 -119.695021 57 7623ft 206kts
27-Jun-20 13:37 35.190833 -119.635105 57 7601ft 205kts
27-Jun-20 13:38 35.219968 -119.575153 56 7575ft 204kts
27-Jun-20 13:39 35.248817 -119.515425 56 7555ft 203kts
27-Jun-20 13:40 35.273944 -119.455947 62 7437ft 175kts
27-Jun-20 13:41 35.292200 -119.408102 61 6665ft 137kts
27-Jun-20 13:42 35.306809 -119.368439 62 5662ft 120kts
27-Jun-20 13:43 35.319508 -119.333337 62 4554ft 110kts
27-Jun-20 13:44 35.333912 -119.284965 68 4167ft 174kts
27-Jun-20 13:45 35.352849 -119.228869 63 4164ft 182kts
27-Jun-20 13:46 35.374132 -119.171570 67 4162ft 183kts
27-Jun-20 13:47 35.365617 -119.120248 113 4160ft 139kts
27-Jun-20 13:48 35.357295 -119.074299 88 4174ft 155kts
27-Jun-20 13:49 35.364756 -119.028954 37 3473ft 110kts
27-Jun-20 13:50 35.394877 -119.018429 340 1974ft 117kts
27-Jun-20 13:51 35.420325 -119.039947 317 570ft 116kts
27-Jun-20 13:52 35.431699 -119.052000 1 491ft 0kts
27-Jun-20 13:53 35.431699 -119.052000 1 491ft 0kts

Navigation Log

Ident Type
Flight plan parsing failed, navigation log unavailable